Terminal Aerodrome Forecast
Issued by NWS

Current Version | Previous Version | Text Only | Print | Product List | Glossary Off
Versions: 1 2 3 4 5 6 7 8 9 10 11 12 13 14 15 16 17 18 19 20 21 22 23 24 25 26 27 28 29 30 31 32 33 34 35 36 37 38 39 40 41 42 43 44

763
FTUS41 KRNK 261244 AAA
TAFLWB
TAF AMD
KLWB 261244Z 2613/2712 02003KT P6SM OVC022
     FM261600 VRB03KT P6SM SCT035 BKN060
     FM262200 15005KT P6SM SCT050
     FM270800 00000KT 3SM BR SCT250=

USA.gov is the U.S. government's official web portal to all federal, state and local government web resources and services.